地図

経路データ

SID SEASON NUMBER BASIN SUBBASIN NAME ISO_TIME NATURE LAT LON WMO_WIND WMO_PRES WMO_AGENCY TRACK_TYPE DIST2LAND LANDFALL IFLAG USA_AGENCY USA_ATCF_ID USA_LAT USA_LON USA_RECORD USA_STATUS USA_WIND USA_PRES USA_SSHS USA_R34_NE USA_R34_SE USA_R34_SW USA_R34_NW USA_R50_NE USA_R50_SE USA_R50_SW USA_R50_NW USA_R64_NE USA_R64_SE USA_R64_SW USA_R64_NW USA_POCI USA_ROCI USA_RMW USA_EYE TOKYO_LAT TOKYO_LON TOKYO_GRADE TOKYO_WIND TOKYO_PRES TOKYO_R50_DIR TOKYO_R50_LONG TOKYO_R50_SHORT TOKYO_R30_DIR TOKYO_R30_LONG TOKYO_R30_SHORT TOKYO_LAND CMA_LAT CMA_LON CMA_CAT CMA_WIND CMA_PRES HKO_LAT HKO_LON HKO_CAT HKO_WIND HKO_PRES NEWDELHI_LAT NEWDELHI_LON NEWDELHI_GRADE NEWDELHI_WIND NEWDELHI_PRES NEWDELHI_CI NEWDELHI_DP NEWDELHI_POCI REUNION_LAT REUNION_LON REUNION_TYPE REUNION_WIND REUNION_PRES REUNION_TNUM REUNION_CI REUNION_RMW REUNION_R34_NE REUNION_R34_SE REUNION_R34_SW REUNION_R34_NW REUNION_R50_NE REUNION_R50_SE REUNION_R50_SW REUNION_R50_NW REUNION_R64_NE REUNION_R64_SE REUNION_R64_SW REUNION_R64_NW BOM_LAT BOM_LON BOM_TYPE BOM_WIND BOM_PRES BOM_TNUM BOM_CI BOM_RMW BOM_R34_NE BOM_R34_SE BOM_R34_SW BOM_R34_NW BOM_R50_NE BOM_R50_SE BOM_R50_SW BOM_R50_NW BOM_R64_NE BOM_R64_SE BOM_R64_SW BOM_R64_NW BOM_ROCI BOM_POCI BOM_EYE BOM_POS_METHOD BOM_PRES_METHOD NADI_LAT NADI_LON NADI_CAT NADI_WIND NADI_PRES WELLINGTON_LAT WELLINGTON_LON WELLINGTON_WIND WELLINGTON_PRES DS824_LAT DS824_LON DS824_STAGE DS824_WIND DS824_PRES TD9636_LAT TD9636_LON TD9636_STAGE TD9636_WIND TD9636_PRES TD9635_LAT TD9635_LON TD9635_WIND TD9635_PRES TD9635_ROCI NEUMANN_LAT NEUMANN_LON NEUMANN_CLASS NEUMANN_WIND NEUMANN_PRES MLC_LAT MLC_LON MLC_CLASS MLC_WIND MLC_PRES USA_GUST BOM_GUST BOM_GUST_PER REUNION_GUST REUNION_GUST_PER USA_SEAHGT USA_SEARAD_NE USA_SEARAD_SE USA_SEARAD_SW USA_SEARAD_NW STORM_SPEED STORM_DIR
1943227N24125 1943 53 WP MM NOT_NAMED 1943-08-14 21:00:00 NR 24.4000 124.500 main 261 261 __________O___ -1 24.4000 124.500 4 2 150
1943227N24125 1943 53 WP MM NOT_NAMED 1943-08-15 00:00:00 NR 24.3234 124.552 main 273 273 __________P___ -1 24.3234 124.552 4 2 145
1943227N24125 1943 53 WP MM NOT_NAMED 1943-08-15 03:00:00 NR 24.2474 124.612 main 275 275 __________P___ -1 24.2474 124.612 4 2 141
1943227N24125 1943 53 WP MM NOT_NAMED 1943-08-15 06:00:00 NR 24.1727 124.692 main 285 285 __________P___ -1 24.1727 124.692 4 2 130
1943227N24125 1943 53 WP MM NOT_NAMED 1943-08-15 09:00:00 NR 24.1000 124.800 main 297 297 __________O___ -1 24.1000 124.800 4 3 122
1943227N24125 1943 53 WP MM NOT_NAMED 1943-08-15 12:00:00 NR 24.0307 124.941 main 309 309 __________P___ -1 24.0307 124.941 4 3 115
1943227N24125 1943 53 WP MM NOT_NAMED 1943-08-15 15:00:00 NR 23.9702 125.100 main 329 329 __________P___ -1 23.9702 125.100 4 3 110
1943227N24125 1943 53 WP MM NOT_NAMED 1943-08-15 18:00:00 NR 23.9245 125.259 main 351 351 __________P___ -1 23.9245 125.259 4 3 104
1943227N24125 1943 53 WP MM NOT_NAMED 1943-08-15 21:00:00 NR 23.9000 125.400 main 361 361 __________O___ -1 23.9000 125.400 4 2 97
1943227N24125 1943 53 WP MM NOT_NAMED 1943-08-16 00:00:00 NR 23.8993 125.492 main 371 371 __________P___ -1 23.8993 125.492 4 2 83
1943227N24125 1943 53 WP MM NOT_NAMED 1943-08-16 03:00:00 NR 23.9199 125.565 main 380 379 __________P___ -1 23.9199 125.565 4 1 66
1943227N24125 1943 53 WP MM NOT_NAMED 1943-08-16 06:00:00 NR 23.9555 125.630 main 379 379 __________P___ -1 23.9555 125.630 4 1 57
1943227N24125 1943 53 WP MM NOT_NAMED 1943-08-16 09:00:00 NR 24.0000 125.700 main 389 389 __________O___ -1 24.0000 125.700 4 1 63
1943227N24125 1943 53 WP MM NOT_NAMED 1943-08-16 12:00:00 NR 24.0182 125.757 main 399 399 __________P___ -1 24.0182 125.757 4 1 67
1943227N24125 1943 53 WP MM NOT_NAMED 1943-08-16 15:00:00 NR 24.0470 125.826 main 399 397 __________P___ -1 24.0470 125.826 4 2 62
1943227N24125 1943 53 WP MM NOT_NAMED 1943-08-16 18:00:00 NR 24.1024 125.932 main 406 406 __________P___ -1 24.1024 125.932 4 3 59
1943227N24125 1943 53 WP MM NOT_NAMED 1943-08-16 21:00:00 NR 24.2000 126.100 main 423 423 __________O___ -1 24.2000 126.100 4 5 57
1943227N24125 1943 53 WP MM NOT_NAMED 1943-08-17 00:00:00 NR 24.3571 126.356 main 449 449 __________P___ -1 24.3571 126.356 4 6 56
1943227N24125 1943 53 WP MM NOT_NAMED 1943-08-17 03:00:00 NR 24.5553 126.675 main 476 476 __________P___ -1 24.5553 126.675 4 7 56
1943227N24125 1943 53 WP MM NOT_NAMED 1943-08-17 06:00:00 NR 24.7758 127.031 main 504 504 __________P___ -1 24.7758 127.031 4 8 56
1943227N24125 1943 53 WP MM NOT_NAMED 1943-08-17 09:00:00 NR 25.0000 127.400 main 543 543 __________O___ -1 25.0000 127.400 4 8 58
1943227N24125 1943 53 WP MM NOT_NAMED 1943-08-17 12:00:00 NR 25.1835 127.739 main 573 573 __________P___ -1 25.1835 127.739 4 7 59
1943227N24125 1943 53 WP MM NOT_NAMED 1943-08-17 15:00:00 NR 25.3697 128.086 main 614 614 __________P___ -1 25.3697 128.086 4 7 59
1943227N24125 1943 53 WP MM NOT_NAMED 1943-08-17 18:00:00 NR 25.5710 128.440 main 643 609 __________P___ -1 25.5710 128.440 4 8 56
1943227N24125 1943 53 WP MM NOT_NAMED 1943-08-17 21:00:00 NR 25.8000 128.800 main 609 577 __________O___ -1 25.8000 128.800 4 8 55
1943227N24125 1943 53 WP MM NOT_NAMED 1943-08-18 00:00:00 NR 26.0594 129.204 main 566 535 __________P___ -1 26.0594 129.204 4 9 53
1943227N24125 1943 53 WP MM NOT_NAMED 1943-08-18 03:00:00 NR 26.3481 129.609 main 535 495 __________P___ -1 26.3481 129.609 4 9 49
1943227N24125 1943 53 WP MM NOT_NAMED 1943-08-18 06:00:00 NR 26.6626 129.985 main 484 448 __________P___ -1 26.6626 129.985 4 9 43
1943227N24125 1943 53 WP MM NOT_NAMED 1943-08-18 09:00:00 NR 27.0000 130.300 main 448 413 __________O___ -1 27.0000 130.300 4 9 36
1943227N24125 1943 53 WP MM NOT_NAMED 1943-08-18 12:00:00 NR 27.3529 130.543 main 402 368 __________P___ -1 27.3529 130.543 4 8 27
1943227N24125 1943 53 WP MM NOT_NAMED 1943-08-18 15:00:00 NR 27.7269 130.720 main 368 323 __________P___ -1 27.7269 130.720 4 8 19
1943227N24125 1943 53 WP MM NOT_NAMED 1943-08-18 18:00:00 NR 28.1125 130.837 main 323 279 __________P___ -1 28.1125 130.837 4 8 12
1943227N24125 1943 53 WP MM NOT_NAMED 1943-08-18 21:00:00 NR 28.5000 130.900 main 279 236 __________O___ -1 28.5000 130.900 4 8 9
1943227N24125 1943 53 WP MM NOT_NAMED 1943-08-19 00:00:00 NR 28.8787 130.974 main 236 202 __________P___ -1 28.8787 130.974 4 8 6
1943227N24125 1943 53 WP MM NOT_NAMED 1943-08-19 03:00:00 NR 29.2568 130.992 main 191 157 __________P___ -1 29.2568 130.992 4 8 357
1943227N24125 1943 53 WP MM NOT_NAMED 1943-08-19 06:00:00 NR 29.6316 130.939 main 157 111 __________P___ -1 29.6316 130.939 4 8 347
1943227N24125 1943 53 WP MM NOT_NAMED 1943-08-19 09:00:00 NR 30.0000 130.800 main 111 69 __________O___ -1 30.0000 130.800 4 8 335
1943227N24125 1943 53 WP MM NOT_NAMED 1943-08-19 12:00:00 NR 30.3905 130.531 main 69 50 __________P___ -1 30.3905 130.531 4 9 325
1943227N24125 1943 53 WP MM NOT_NAMED 1943-08-19 15:00:00 NR 30.7688 130.183 main 44 29 __________P___ -1 30.7688 130.183 4 9 320
1943227N24125 1943 53 WP MM NOT_NAMED 1943-08-19 18:00:00 NR 31.1125 129.818 main 39 37 __________P___ -1 31.1125 129.818 4 9 317
1943227N24125 1943 53 WP MM NOT_NAMED 1943-08-19 21:00:00 NR 31.4000 129.500 main 67 67 __________O___ -1 31.4000 129.500 4 6 320
1943227N24125 1943 53 WP MM NOT_NAMED 1943-08-20 00:00:00 NR 31.6109 129.332 main 87 85 __________P___ -1 31.6109 129.332 4 4 327
1943227N24125 1943 53 WP MM NOT_NAMED 1943-08-20 03:00:00 NR 31.7666 129.218 main 94 91 __________P___ -1 31.7666 129.218 4 3 327
1943227N24125 1943 53 WP MM NOT_NAMED 1943-08-20 06:00:00 NR 31.8891 129.120 main 96 87 __________P___ -1 31.8891 129.120 4 3 321
1943227N24125 1943 53 WP MM NOT_NAMED 1943-08-20 09:00:00 NR 32.0000 129.000 main 93 93 __________O___ -1 32.0000 129.000 4 4 314
1943227N24125 1943 53 WP MM NOT_NAMED 1943-08-20 12:00:00 NR 32.1567 128.796 main 95 95 __________P___ -1 32.1567 128.796 4 5 309
1943227N24125 1943 53 WP MM NOT_NAMED 1943-08-20 15:00:00 NR 32.3028 128.566 main 108 108 __________P___ -1 32.3028 128.566 4 5 304
1943227N24125 1943 53 WP MM NOT_NAMED 1943-08-20 18:00:00 NR 32.4224 128.327 main 132 132 __________P___ -1 32.4224 128.327 4 4 297
1943227N24125 1943 53 WP MM NOT_NAMED 1943-08-20 21:00:00 NR 32.5000 128.100 main 147 135 __________O___ -1 32.5000 128.100 4 4 287
1943227N24125 1943 53 WP MM NOT_NAMED 1943-08-21 00:00:00 NR 32.5302 127.906 main 135 122 __________P___ -1 32.5302 127.906 4 3 273
1943227N24125 1943 53 WP MM NOT_NAMED 1943-08-21 03:00:00 NR 32.5173 127.727 main 122 116 __________P___ -1 32.5173 127.727 4 3 259
1943227N24125 1943 53 WP MM NOT_NAMED 1943-08-21 06:00:00 NR 32.4708 127.560 main 116 110 __________P___ -1 32.4708 127.560 4 3 247
1943227N24125 1943 53 WP MM NOT_NAMED 1943-08-21 09:00:00 NR 32.4000 127.400 main 114 110 __________O___ -1 32.4000 127.400 4 3 241
1943227N24125 1943 53 WP MM NOT_NAMED 1943-08-21 12:00:00 NR 32.3294 127.263 main 119 114 __________P___ -1 32.3294 127.263 4 3 234
1943227N24125 1943 53 WP MM NOT_NAMED 1943-08-21 15:00:00 NR 32.2370 127.130 main 120 117 __________P___ -1 32.2370 127.130 4 3 229
1943227N24125 1943 53 WP MM NOT_NAMED 1943-08-21 18:00:00 NR 32.1262 126.982 main 128 125 __________P___ -1 32.1262 126.982 4 4 230
1943227N24125 1943 53 WP MM NOT_NAMED 1943-08-21 21:00:00 NR 32.0000 126.800 main 135 134 __________O___ -1 32.0000 126.800 4 4 235
1943227N24125 1943 53 WP MM NOT_NAMED 1943-08-22 00:00:00 NR 31.8727 126.553 main 144 144 __________P___ -1 31.8727 126.553 4 5 239
1943227N24125 1943 53 WP MM NOT_NAMED 1943-08-22 03:00:00 NR 31.7303 126.272 main 167 167 __________P___ -1 31.7303 126.272 4 6 238
1943227N24125 1943 53 WP MM NOT_NAMED 1943-08-22 06:00:00 NR 31.5727 125.981 main 180 180 __________P___ -1 31.5727 125.981 4 6 236
1943227N24125 1943 53 WP MM NOT_NAMED 1943-08-22 09:00:00 NR 31.4000 125.700 main 208 208 __________O___ -1 31.4000 125.700 4 6 232
1943227N24125 1943 53 WP MM NOT_NAMED 1943-08-22 12:00:00 NR 31.2062 125.436 main 238 238 __________P___ -1 31.2062 125.436 4 6 228
1943227N24125 1943 53 WP MM NOT_NAMED 1943-08-22 15:00:00 NR 31.0000 125.190 main 266 266 __________P___ -1 31.0000 125.190 4 6 224
1943227N24125 1943 53 WP MM NOT_NAMED 1943-08-22 18:00:00 NR 30.7938 124.973 main 294 277 __________P___ -1 30.7938 124.973 4 5 220
1943227N24125 1943 53 WP MM NOT_NAMED 1943-08-22 21:00:00 NR 30.6000 124.800 main 278 270 __________O___ -1 30.6000 124.800 4 4 216
1943227N24125 1943 53 WP MM NOT_NAMED 1943-08-23 00:00:00 NR 30.4314 124.670 main 273 263 __________P___ -1 30.4314 124.670 4 4 210
1943227N24125 1943 53 WP MM NOT_NAMED 1943-08-23 03:00:00 NR 30.2773 124.583 main 265 252 __________P___ -1 30.2773 124.583 4 3 201
1943227N24125 1943 53 WP MM NOT_NAMED 1943-08-23 06:00:00 NR 30.1346 124.529 main 252 251 __________P___ -1 30.1346 124.529 4 3 194
1943227N24125 1943 53 WP MM NOT_NAMED 1943-08-23 09:00:00 NR 30.0000 124.500 main 251 250 __________O___ -1 30.0000 124.500 4 3 194
1943227N24125 1943 53 WP MM NOT_NAMED 1943-08-23 12:00:00 NR 29.8474 124.454 main 250 238 __________P___ -1 29.8474 124.454 4 3 192
1943227N24125 1943 53 WP MM NOT_NAMED 1943-08-23 15:00:00 NR 29.7049 124.433 main 238 236 __________P___ -1 29.7049 124.433 4 3 0
1943227N24125 1943 53 WP MM NOT_NAMED 1943-08-23 18:00:00 NR 29.5849 124.445 main 236 236 __________P___ -1 29.5849 124.445 4 2 164
1943227N24125 1943 53 WP MM NOT_NAMED 1943-08-23 21:00:00 NR 29.5000 124.500 main 244 244 __________O___ -1 29.5000 124.500 4 2 134
1943227N24125 1943 53 WP MM NOT_NAMED 1943-08-24 00:00:00 NR 29.4479 124.611 main 252 252 __________P___ -1 29.4479 124.611 4 2 106
1943227N24125 1943 53 WP MM NOT_NAMED 1943-08-24 03:00:00 NR 29.4327 124.763 main 272 272 __________P___ -1 29.4327 124.763 4 3 89
1943227N24125 1943 53 WP MM NOT_NAMED 1943-08-24 06:00:00 NR 29.4511 124.933 main 282 282 __________P___ -1 29.4511 124.933 4 3 77
1943227N24125 1943 53 WP MM NOT_NAMED 1943-08-24 09:00:00 NR 29.5000 125.100 main 301 301 __________O___ -1 29.5000 125.100 4 3 66
1943227N24125 1943 53 WP MM NOT_NAMED 1943-08-24 12:00:00 NR 29.5671 125.236 main 312 312 __________P___ -1 29.5671 125.236 4 3 55
1943227N24125 1943 53 WP MM NOT_NAMED 1943-08-24 15:00:00 NR 29.6624 125.365 main 333 333 __________P___ -1 29.6624 125.365 4 3 46
1943227N24125 1943 53 WP MM NOT_NAMED 1943-08-24 18:00:00 NR 29.7765 125.486 main 344 344 __________P___ -1 29.7765 125.486 4 3 41
1943227N24125 1943 53 WP MM NOT_NAMED 1943-08-24 21:00:00 NR 29.9000 125.600 main 356 356 __________O___ -1 29.9000 125.600 4 3 40
1943227N24125 1943 53 WP MM NOT_NAMED 1943-08-25 00:00:00 NR 30.0137 125.719 main 361 349 __________P___ -1 30.0137 125.719 4 3 40
1943227N24125 1943 53 WP MM NOT_NAMED 1943-08-25 03:00:00 NR 30.1350 125.830 main 349 325 __________P___ -1 30.1350 125.830 4 3 35
1943227N24125 1943 53 WP MM NOT_NAMED 1943-08-25 06:00:00 NR 30.2638 125.926 main 325 313 __________P___ -1 30.2638 125.926 4 3 29
1943227N24125 1943 53 WP MM NOT_NAMED 1943-08-25 09:00:00 NR 30.4000 126.000 main 313 301 __________O___ -1 30.4000 126.000 4 3 23
1943227N24125 1943 53 WP MM NOT_NAMED 1943-08-25 12:00:00 NR 30.5346 126.055 main 301 279 __________P___ -1 30.5346 126.055 4 3 16
1943227N24125 1943 53 WP MM NOT_NAMED 1943-08-25 15:00:00 NR 30.6774 126.088 main 279 268 __________P___ -1 30.6774 126.088 4 3 6
1943227N24125 1943 53 WP MM NOT_NAMED 1943-08-25 18:00:00 NR 30.8315 126.102 main 268 246 __________P___ -1 30.8315 126.102 4 3 0
1943227N24125 1943 53 WP MM NOT_NAMED 1943-08-25 21:00:00 NR 31.0000 126.100 main 246 223 __________O___ -1 31.0000 126.100 4 4 357
1943227N24125 1943 53 WP MM NOT_NAMED 1943-08-26 00:00:00 NR 31.1938 126.081 main 223 201 __________P___ -1 31.1938 126.081 4 4 355
1943227N24125 1943 53 WP MM NOT_NAMED 1943-08-26 03:00:00 NR 31.4000 126.050 main 201 180 __________P___ -1 31.4000 126.050 4 4 352
1943227N24125 1943 53 WP MM NOT_NAMED 1943-08-26 06:00:00 NR 31.6063 126.019 main 180 158 __________P___ -1 31.6063 126.019 4 4 355
1943227N24125 1943 53 WP MM NOT_NAMED 1943-08-26 09:00:00 NR 31.8000 126.000 main 158 136 __________O___ -1 31.8000 126.000 7 4 358
1943227N24125 1943 53 WP MM NOT_NAMED 1943-08-26 12:00:00 NR 31.9644 126.011 main 136 125 __________P___ -1 31.9644 126.011 7 3 6
1943227N24125 1943 53 WP MM NOT_NAMED 1943-08-26 15:00:00 NR 32.1150 126.035 main 125 102 __________P___ -1 32.1150 126.035 7 3 7
1943227N24125 1943 53 WP MM NOT_NAMED 1943-08-26 18:00:00 NR 32.2581 126.067 main 102 91 __________P___ -1 32.2581 126.067 7 3 11
1943227N24125 1943 53 WP MM NOT_NAMED 1943-08-26 21:00:00 NR 32.4000 126.100 main 91 80 __________O___ -1 32.4000 126.100 7 3 8
1943227N24125 1943 53 WP MM NOT_NAMED 1943-08-27 00:00:00 NR 32.5459 126.109 main 80 58 __________P___ -1 32.5459 126.109 7 3 5
1943227N24125 1943 53 WP MM NOT_NAMED 1943-08-27 03:00:00 NR 32.6924 126.120 main 58 48 __________P___ -1 32.6924 126.120 7 3 6
1943227N24125 1943 53 WP MM NOT_NAMED 1943-08-27 06:00:00 NR 32.8427 126.147 main 48 24 __________P___ -1 32.8427 126.147 7 3 12
1943227N24125 1943 53 WP MM NOT_NAMED 1943-08-27 09:00:00 NR 33.0000 126.200 main 24 14 __________O___ -1 33.0000 126.200 7 3 14
1943227N24125 1943 53 WP MM NOT_NAMED 1943-08-27 12:00:00 NR 33.1347 126.245 main 14 0 __________P___ -1 33.1347 126.245 7 3 21
1943227N24125 1943 53 WP MM NOT_NAMED 1943-08-27 15:00:00 NR 33.2815 126.325 main 0 0 __________P___ -1 33.2815 126.325 7 4 30
1943227N24125 1943 53 WP MM NOT_NAMED 1943-08-27 18:00:00 NR 33.4625 126.468 main 0 0 __________P___ -1 33.4625 126.468 7 5 37
1943227N24125 1943 53 WP MM NOT_NAMED 1943-08-27 21:00:00 NR 33.7000 126.700 main 22 22 __________O___ -1 33.7000 126.700 7 7 43
1943227N24125 1943 53 WP MM NOT_NAMED 1943-08-28 00:00:00 NR 34.0105 127.071 main 48 14 __________P___ -1 34.0105 127.071 7 10 45
1943227N24125 1943 53 WP MM NOT_NAMED 1943-08-28 03:00:00 NR 34.3766 127.530 main 18 0 __________P___ -1 34.3766 127.530 7 11 46
1943227N24125 1943 53 WP MM NOT_NAMED 1943-08-28 06:00:00 NR 34.7793 128.025 main 14 0 __________P___ -1 34.7793 128.025 7 11 44
1943227N24125 1943 53 WP MM NOT_NAMED 1943-08-28 09:00:00 NR 35.2000 128.500 main 0 0 __________O___ -1 35.2000 128.500 7 10 44
1943227N24125 1943 53 WP MM NOT_NAMED 1943-08-28 12:00:00 NR 35.5169 128.898 main 0 0 __________P___ -1 35.5169 128.898 7 9 43
1943227N24125 1943 53 WP MM NOT_NAMED 1943-08-28 15:00:00 NR 35.8623 129.265 main 0 0 __________P___ -1 35.8623 129.265 7 10 36
1943227N24125 1943 53 WP MM NOT_NAMED 1943-08-28 18:00:00 NR 36.3015 129.599 main 17 17 __________P___ -1 36.3015 129.599 7 12 26
1943227N24125 1943 53 WP MM NOT_NAMED 1943-08-28 21:00:00 NR 36.9000 129.900 main 41 41 __________O___ -1 36.9000 129.900 7 16 15
1943227N24125 1943 53 WP MM NOT_NAMED 1943-08-29 00:00:00 NR 37.8013 130.099 main 85 85 __________P___ -1 37.8013 130.099 7 20 9
1943227N24125 1943 53 WP MM NOT_NAMED 1943-08-29 03:00:00 NR 38.8513 130.281 main 165 120 __________P___ -1 38.8513 130.281 7 22 9
1943227N24125 1943 53 WP MM NOT_NAMED 1943-08-29 06:00:00 NR 39.9257 130.522 main 120 86 __________P___ -1 39.9257 130.522 7 21 13
1943227N24125 1943 53 WP MM NOT_NAMED 1943-08-29 09:00:00 NR 40.9000 130.900 main 100 100 __________O___ -1 40.9000 130.900 7 19 25
1943227N24125 1943 53 WP MM NOT_NAMED 1943-08-29 12:00:00 NR 41.6373 131.564 main 107 66 __________P___ -1 41.6373 131.564 7 17 39
1943227N24125 1943 53 WP MM NOT_NAMED 1943-08-29 15:00:00 NR 42.2502 132.368 main 56 0 __________P___ -1 42.2502 132.368 7 17 47
1943227N24125 1943 53 WP MM NOT_NAMED 1943-08-29 18:00:00 NR 42.7624 133.214 main 0 0 __________P___ -1 42.7624 133.214 7 15 52
1943227N24125 1943 53 WP MM NOT_NAMED 1943-08-29 21:00:00 NR 43.2000 134.000 main 0 0 __________O___ -1 43.2000 134.000 7 13 49
1943227N24125 1943 53 WP MM NOT_NAMED 1943-08-30 00:00:00 NR 43.6239 134.586 main 0 0 __________P___ -1 43.6239 134.586 7 11 45
1943227N24125 1943 53 WP MM NOT_NAMED 1943-08-30 03:00:00 NR 43.9862 135.091 main 0 0 __________P___ -1 43.9862 135.091 7 10 45
1943227N24125 1943 53 WP MM NOT_NAMED 1943-08-30 06:00:00 NR 44.3057 135.550 main 0 0 __________P___ -1 44.3057 135.550 7 9 47
1943227N24125 1943 53 WP MM NOT_NAMED 1943-08-30 09:00:00 NR 44.6000 136.000 main 0 0 __________O___ -1 44.6000 136.000 7 8 45
1943227N24125 1943 53 WP MM NOT_NAMED 1943-08-30 12:00:00 NR 44.8578 136.319 main 0 0 __________P___ -1 44.8578 136.319 7 7 43
1943227N24125 1943 53 WP MM NOT_NAMED 1943-08-30 15:00:00 NR 45.1025 136.663 main 0 0 __________P___ -1 45.1025 136.663 7 8 50
1943227N24125 1943 53 WP MM NOT_NAMED 1943-08-30 18:00:00 NR 45.3716 137.174 main 7 7 __________P___ -1 45.3716 137.174 7 11 58
1943227N24125 1943 53 WP MM NOT_NAMED 1943-08-30 21:00:00 NR 45.7000 138.000 main 25 25 __________O___ -1 45.7000 138.000 7 17 64
1943227N24125 1943 53 WP MM NOT_NAMED 1943-08-31 00:00:00 NR 46.1095 139.375 main 97 61 __________P___ -1 46.1095 139.375 7 23 68
1943227N24125 1943 53 WP MM NOT_NAMED 1943-08-31 03:00:00 NR 46.5598 141.083 main 53 0 __________P___ -1 46.5598 141.083 7 26 70
1943227N24125 1943 53 WP MM NOT_NAMED 1943-08-31 06:00:00 NR 47.0276 142.951 main 0 0 __________P___ -1 47.0276 142.951 7 27 70
1943227N24125 1943 53 WP MM NOT_NAMED 1943-08-31 09:00:00 NR 47.5000 144.800 main 122 112 __________O___ -1 47.5000 144.800 7 25 67
1943227N24125 1943 53 WP MM NOT_NAMED 1943-08-31 12:00:00 NR 48.0071 146.381 main 141 141 __________P___ -1 48.0071 146.381 7 23 64
1943227N24125 1943 53 WP MM NOT_NAMED 1943-08-31 15:00:00 NR 48.5205 147.912 main 234 234 __________P___ -1 48.5205 147.912 7 22 64
1943227N24125 1943 53 WP MM NOT_NAMED 1943-08-31 18:00:00 NR 48.9990 149.413 main 327 324 __________P___ -1 48.9990 149.413 7 21 66
1943227N24125 1943 53 WP MM NOT_NAMED 1943-08-31 21:00:00 NR 49.4000 150.900 main 317 207 __________O___ -1 49.4000 150.900 7 21 73
1943227N24125 1943 53 WP MM NOT_NAMED 1943-09-01 00:00:00 NR 49.6279 152.485 main 200 98 __________P___ -1 49.6279 152.485 7 21 79
1943227N24125 1943 53 WP MM NOT_NAMED 1943-09-01 03:00:00 NR 49.7803 154.032 main 91 11 __________P___ -1 49.7803 154.032 7 20 82
1943227N24125 1943 53 WP MM NOT_NAMED 1943-09-01 06:00:00 NR 49.9169 155.487 main 13 13 __________P___ -1 49.9169 155.487 7 18 80
1943227N24125 1943 53 WP MM NOT_NAMED 1943-09-01 09:00:00 NR 50.1000 156.800 main 61 61 __________O___ -1 50.1000 156.800 7 16 74
1943227N24125 1943 53 WP MM NOT_NAMED 1943-09-01 12:00:00 NR 50.3783 157.946 main 100 100 __________P___ -1 50.3783 157.946 7 15 65
1943227N24125 1943 53 WP MM NOT_NAMED 1943-09-01 15:00:00 NR 50.7404 158.961 main 125 117 __________P___ -1 50.7404 158.961 7 15 58
1943227N24125 1943 53 WP MM NOT_NAMED 1943-09-01 18:00:00 NR 51.1578 159.896 main 140 140 __________P___ -1 51.1578 159.896 7 14 53
1943227N24125 1943 53 WP MM NOT_NAMED 1943-09-01 21:00:00 NR 51.6000 160.800 main 172 __________O___ -1 51.6000 160.800 7 14 52

デジタル台風データ・検索

IBTrACS Databaseについて

本データベースは、米国NOAAが公開する1842年以降の世界の熱帯低気圧のベストトラックデータアーカイブInternational Best Track Archive for Climate Stewardship (IBTrACS)を、ウェブで閲覧しやすい形式に変換したものです。

最終更新日:2021-12-06